メインページ
METAR-TAF:

METAR-TAF

空港 :

Val-d'Or, ケベック州, カナダ

緯度: 48-04N, 経度: 077-47W, 海抜: 337m

現時点の気象観測

当レポートは28分前の20:00(UTC)に作成
の風 12kt、最大17ktの突風を伴う
気温 -11°C
湿度 85%
気圧 1022 hPa
視程: 24.1km
高度3100ftの雲は散在している
高度5500ftの千切れ雲あり
高度21000ftの千切れ雲あり
小雪

METAR: CYVO 072000Z 19012G17KT 15SM -SN SCT031 BKN055 BKN210 M11/M13 A3019 RMK SC3SC4CI1 CI TR SLP257

時間: 15:28 (20:28 UTC)

予報

当レポートは2時間49分前の17:39(UTC)に作成
予報は07日の 18時(UTC)から 08日の 06時(UTC)まで有効
南/南西の風 7kt
視程: 10km
高度2500ftの千切れ雲あり
高度8000ftの千切れ雲あり
07日の 18時(UTC)から 07日の 20時(UTC)まで一時的に
視程: 6.4km
高度1500ftの千切れ雲あり
高度8000ftの千切れ雲あり
小雪
07日の 2000時(UTC)から
南/南西の風 12kt
視程: 4.8km
高度2000ftの千切れ雲あり
高度4000ftの曇り
小雪
07日の 20時(UTC)から 07日の 24時(UTC)まで一時的に
視程: 10km
高度3000ftの千切れ雲あり
08日の 0000時(UTC)から
南/南西の風 8kt
視程: 10km
高度2500ftの千切れ雲あり
08日の 00時(UTC)から 08日の 06時(UTC)まで一時的に
視程: 8.0km
高度2000ftの千切れ雲あり
小雪
確率 30%
08日の 02時(UTC)から 08日の 06時(UTC)まで
視程: 3.2km
高度800ftの千切れ雲あり
小雪

TAF: CYVO 071739Z 0718/0806 21007KT P6SM BKN025 BKN080 TEMPO 0718/0720 4SM -SN BKN015 BKN080 FM072000 21012KT 3SM -SN BKN020 OVC040 TEMPO 0720/0724 P6SM NSW BKN030 FM080000 21008KT P6SM BKN025 TEMPO 0800/0806 5SM -SN BKN020 PROB30 0802/0806 2SM -SN BKN008 RMK NXT FCST BY 080000Z

4,000以上の空港の気象観測と天気予報(METAR報とTAF報)

利用可能な観測所は地図上に黄色い丸と赤い丸で示す。

丸の上にカーソルを重ねると観測所名を参照できる。

次にクリックすると気象観測と天気予報を参照できる。

マップの切り替え:黒色「×」印の緑ボタンをクリックして拡大、「-」印の緑ボタンをクリックして縮小、緑色の三角印をクリックして隣りの地図に切り替え


METAR-TAF: